Time;durP1;ratioP1;P1;durP2;ratioP2;P2;SDS_P1;SDS_P2;PMS_P1;PMS_P2;Temp;Humidity;BMP_temperature;BMP_pressure;BME280_temperature;BME280_humidity;BME280_pressure;Samples;Min_cycle;Max_cycle;Signal;HPM_P1;HPM_P2
2023/12/20 00:00:38;;;;;;;8.00;4.53;;;;;;;4.59;100.00;101326.09;1015936;29;20315;-58
2023/12/20 00:01:29;;;;;;;7.07;4.10;;;;;;;4.61;100.00;101335.50;1019051;29;20304;-54
2023/12/20 00:02:25;;;;;;;9.32;4.50;;;;;;;4.61;100.00;101338.13;1019153;29;20311;-54
2023/12/20 00:03:15;;;;;;;15.23;4.20;;;;;;;4.60;100.00;101347.03;1014346;29;20304;-58
2023/12/20 00:04:17;;;;;;;8.73;4.05;;;;;;;4.59;100.00;101342.75;1014897;29;20406;-53
2023/12/20 00:05:18;;;;;;;7.60;4.18;;;;;;;4.58;100.00;101345.56;1017311;29;20367;-57
2023/12/20 00:07:27;;;;;;;10.02;3.95;;;;;;;4.65;100.00;101338.63;1017106;29;20455;-55
2023/12/20 00:08:15;;;;;;;8.57;3.38;;;;;;;4.59;100.00;101332.19;1012637;29;20301;-55
2023/12/20 00:09:03;;;;;;;6.88;4.93;;;;;;;4.61;100.00;101338.13;1016379;29;20339;-54
2023/12/20 00:10:24;;;;;;;8.93;3.88;;;;;;;4.58;100.00;101343.75;1011580;29;20380;-57
2023/12/20 00:11:37;;;;;;;15.32;4.25;;;;;;;4.55;100.00;101332.69;1014285;29;20348;-58
2023/12/20 00:12:15;;;;;;;10.80;3.72;;;;;;;4.53;100.00;101332.84;1015883;29;20881;-57
2023/12/20 00:13:30;;;;;;;7.50;3.25;;;;;;;4.51;100.00;101336.66;1008256;29;20322;-57
2023/12/20 00:14:40;;;;;;;8.07;3.63;;;;;;;4.42;100.00;101335.84;1012945;29;20304;-57
2023/12/20 00:15:39;;;;;;;5.00;3.03;;;;;;;4.34;100.00;101338.44;1012494;29;20312;-58
2023/12/20 00:16:39;;;;;;;7.38;3.30;;;;;;;4.31;100.00;101333.50;1015190;29;20319;-53
2023/12/20 00:17:52;;;;;;;15.43;3.80;;;;;;;4.29;100.00;101324.94;1021912;29;20299;-53
2023/12/20 00:18:27;;;;;;;9.25;3.17;;;;;;;4.31;100.00;101328.22;1022368;29;20355;-53
2023/12/20 00:19:22;;;;;;;23.23;3.30;;;;;;;4.35;100.00;101326.91;1016211;29;20313;-53
2023/12/20 00:20:16;;;;;;;6.65;2.83;;;;;;;4.31;100.00;101322.94;1013156;29;20052;-57
2023/12/20 00:21:43;;;;;;;10.98;3.45;;;;;;;4.26;100.00;101326.09;1013953;29;20307;-54
2023/12/20 00:22:35;;;;;;;8.13;2.45;;;;;;;4.26;100.00;101326.09;1013663;29;20360;-57
2023/12/20 00:23:43;;;;;;;6.65;2.40;;;;;;;4.21;100.00;101328.38;1019298;29;20382;-58
2023/12/20 00:24:30;;;;;;;5.22;2.40;;;;;;;4.17;100.00;101331.53;1019613;29;20311;-53
2023/12/20 00:25:12;;;;;;;8.55;2.70;;;;;;;4.23;100.00;101325.59;1010432;29;20301;-57
2023/12/20 00:26:12;;;;;;;10.38;2.55;;;;;;;4.25;100.00;101323.59;1016497;29;20312;-55
2023/12/20 00:27:47;;;;;;;11.25;3.28;;;;;;;4.17;100.00;101328.88;1010350;29;20060;-54
2023/12/20 00:28:34;;;;;;;10.40;2.70;;;;;;;4.24;100.00;101333.34;1012399;29;20312;-53
2023/12/20 00:29:24;;;;;;;8.55;2.55;;;;;;;4.21;100.00;101328.38;1013017;29;20308;-53
2023/12/20 00:30:13;;;;;;;5.57;2.63;;;;;;;4.15;100.00;101326.41;1014100;29;20311;-58
2023/12/20 00:31:12;;;;;;;5.57;2.15;;;;;;;4.26;100.00;101330.53;1017943;29;20301;-58
2023/12/20 00:32:22;;;;;;;5.20;2.08;;;;;;;4.25;100.00;101320.97;1020525;29;20382;-56
2023/12/20 00:33:43;;;;;;;6.25;2.38;;;;;;;4.24;100.00;101324.59;1016605;29;20303;-51
2023/12/20 00:34:31;;;;;;;12.88;2.45;;;;;;;4.24;100.00;101316.69;1022599;28;20346;-57
2023/12/20 00:35:36;;;;;;;12.13;2.97;;;;;;;4.29;100.00;101319.66;1012778;29;20680;-53
2023/12/20 00:36:29;;;;;;;18.90;2.13;;;;;;;4.27;100.00;101316.34;1014544;29;20521;-54
2023/12/20 00:37:16;;;;;;;14.55;2.38;;;;;;;4.26;100.00;101319.97;1017661;29;20300;-57
2023/12/20 00:38:20;;;;;;;12.07;2.45;;;;;;;4.31;100.00;101325.59;1012821;29;20397;-57
2023/12/20 00:39:24;;;;;;;6.18;2.03;;;;;;;4.27;100.00;101326.91;1001709;29;20319;-57
2023/12/20 00:40:23;;;;;;;5.03;2.28;;;;;;;4.22;100.00;101323.94;1009969;29;20840;-58
2023/12/20 00:41:47;;;;;;;11.90;2.13;;;;;;;4.23;100.00;101325.59;1017752;29;20307;-57
2023/12/20 00:42:28;;;;;;;6.97;1.70;;;;;;;4.21;100.00;101338.09;1020705;29;20338;-55
2023/12/20 00:43:28;;;;;;;7.70;2.15;;;;;;;4.16;100.00;101330.69;1020935;29;20743;-57
2023/12/20 00:44:22;;;;;;;11.88;2.58;;;;;;;4.14;100.00;101321.28;1015992;29;20496;-53
2023/12/20 00:45:11;;;;;;;8.95;2.03;;;;;;;4.12;100.00;101325.91;1017517;29;20874;-54
2023/12/20 00:46:19;;;;;;;3.53;1.77;;;;;;;4.13;100.00;101330.19;1011340;29;20305;-56
2023/12/20 00:48:35;;;;;;;7.75;1.60;;;;;;;4.12;100.00;101334.66;1013771;29;20304;-51
2023/12/20 00:49:31;;;;;;;5.78;2.75;;;;;;;4.11;100.00;101332.13;1011782;29;20300;-53
2023/12/20 00:50:23;;;;;;;7.80;2.03;;;;;;;4.12;100.00;101332.00;1017939;29;20040;-57
2023/12/20 00:51:12;;;;;;;6.35;1.52;;;;;;;4.17;100.00;101327.06;1016166;29;20428;-57
2023/12/20 00:52:04;;;;;;;10.23;1.80;;;;;;;4.22;100.00;101329.22;1009371;29;20313;-54
2023/12/20 00:52:57;;;;;;;7.35;2.40;;;;;;;4.22;100.00;101323.94;1012378;29;20312;-55
2023/12/20 00:53:59;;;;;;;16.05;2.63;;;;;;;4.21;100.00;101327.56;1010463;29;20325;-54
2023/12/20 00:54:49;;;;;;;13.07;2.35;;;;;;;4.25;100.00;101326.25;1009325;29;20316;-53
2023/12/20 00:55:28;;;;;;;6.57;1.98;;;;;;;4.27;100.00;101322.44;1010466;29;20352;-57
2023/12/20 00:55:59;;;;;;;10.82;3.55;;;;;;;4.26;100.00;101317.34;1014197;29;20415;-57
2023/12/20 00:56:31;;;;;;;5.20;2.25;;;;;;;4.21;100.00;101327.56;1013697;29;20308;-58
2023/12/20 00:57:03;;;;;;;17.02;3.65;;;;;;;4.20;100.00;101320.63;1014912;29;20301;-57
2023/12/20 00:57:34;;;;;;;11.85;4.40;;;;;;;4.22;100.00;101318.66;1015259;29;20372;-57
2023/12/20 00:58:06;;;;;;;14.85;2.50;;;;;;;4.19;100.00;101321.63;1015346;29;20304;-57
2023/12/20 00:58:38;;;;;;;10.85;1.95;;;;;;;4.18;100.00;101322.63;1015112;29;20359;-58
2023/12/20 00:59:10;;;;;;;7.15;2.17;;;;;;;4.13;100.00;101323.13;1014647;29;20322;-57
2023/12/20 00:59:42;;;;;;;12.57;2.05;;;;;;;4.12;100.00;101320.63;1014575;29;20374;-58
2023/12/20 01:00:14;;;;;;;14.93;2.42;;;;;;;4.10;100.00;101322.59;1014838;29;20395;-57
2023/12/20 01:00:45;;;;;;;9.40;1.95;;;;;;;4.14;100.00;101321.28;1014944;29;20312;-57
2023/12/20 01:01:17;;;;;;;7.05;2.53;;;;;;;4.08;100.00;101324.56;1015284;29;20288;-58
2023/12/20 01:01:49;;;;;;;7.57;1.65;;;;;;;4.02;100.00;101324.22;1013131;29;20300;-58
2023/12/20 01:02:20;;;;;;;11.93;1.85;;;;;;;4.02;100.00;101329.50;1014812;29;20312;-57
2023/12/20 01:02:52;;;;;;;6.93;1.90;;;;;;;4.07;100.00;101326.38;1014765;29;20303;-58
2023/12/20 01:03:24;;;;;;;16.77;2.53;;;;;;;4.02;100.00;101321.59;1014947;29;20314;-57
2023/12/20 01:03:55;;;;;;;5.80;1.73;;;;;;;4.00;100.00;101320.94;1014839;29;20296;-58
2023/12/20 01:04:27;;;;;;;6.35;1.95;;;;;;;4.00;100.00;101315.66;1014850;29;20443;-56
2023/12/20 01:04:59;;;;;;;12.02;2.05;;;;;;;4.01;100.00;101322.56;1015073;29;20300;-57
2023/12/20 01:05:30;;;;;;;7.95;1.75;;;;;;;4.01;100.00;101314.66;1015302;29;20310;-57
2023/12/20 01:06:04;;;;;;;10.30;2.05;;;;;;;3.97;100.00;101310.72;1014454;29;20304;-57
2023/12/20 01:06:36;;;;;;;10.95;2.97;;;;;;;3.96;100.00;101314.34;1014632;29;20934;-57
2023/12/20 01:07:07;;;;;;;3.55;1.73;;;;;;;4.03;100.00;101312.69;1014582;29;20304;-57
2023/12/20 01:07:39;;;;;;;6.78;1.80;;;;;;;4.03;100.00;101315.31;1014770;29;20667;-57
2023/12/20 01:08:11;;;;;;;7.93;2.22;;;;;;;4.03;100.00;101304.78;1014879;29;20311;-57
2023/12/20 01:08:42;;;;;;;10.73;2.58;;;;;;;4.03;100.00;101312.69;1015085;29;20336;-57
2023/12/20 01:09:14;;;;;;;14.13;2.42;;;;;;;4.02;100.00;101308.41;1015053;29;20972;-58
2023/12/20 01:09:46;;;;;;;13.48;2.13;;;;;;;4.02;100.00;101313.69;1014953;29;20296;-57
2023/12/20 01:10:17;;;;;;;10.88;3.15;;;;;;;4.07;100.00;101317.63;1015031;29;20825;-57
2023/12/20 01:10:49;;;;;;;10.43;1.58;;;;;;;4.01;100.00;101317.31;1014995;29;20607;-57
2023/12/20 01:11:21;;;;;;;7.03;2.20;;;;;;;4.03;100.00;101323.25;1014831;29;20900;-57
2023/12/20 01:11:53;;;;;;;11.57;2.58;;;;;;;4.03;100.00;101315.31;1014562;29;20308;-57
2023/12/20 01:12:24;;;;;;;8.52;1.15;;;;;;;4.01;100.00;101316.47;1014770;29;20314;-57
2023/12/20 01:12:56;;;;;;;3.78;1.75;;;;;;;3.97;100.00;101315.16;1014993;29;20306;-57
2023/12/20 01:13:27;;;;;;;9.18;1.58;;;;;;;4.00;100.00;101312.19;1014972;29;20361;-57
2023/12/20 01:13:59;;;;;;;29.02;2.97;;;;;;;4.06;100.00;101323.91;1014842;29;20391;-57
2023/12/20 01:14:31;;;;;;;12.32;2.13;;;;;;;4.08;100.00;101314.00;1014485;29;20335;-57
2023/12/20 01:15:02;;;;;;;12.25;2.28;;;;;;;4.06;100.00;101318.63;1014423;29;20637;-57
2023/12/20 01:15:34;;;;;;;6.95;1.92;;;;;;;4.01;100.00;101312.03;1014993;29;20310;-58
2023/12/20 01:16:06;;;;;;;8.80;1.67;;;;;;;3.96;100.00;101316.16;1014934;29;20340;-57
2023/12/20 01:16:38;;;;;;;13.32;1.92;;;;;;;4.03;100.00;101314.50;1014520;29;20521;-57
2023/12/20 01:17:09;;;;;;;7.57;2.65;;;;;;;4.03;100.00;101315.31;1015089;29;20424;-57
2023/12/20 01:17:41;;;;;;;14.15;2.17;;;;;;;3.98;100.00;101309.72;1014566;29;20296;-57
2023/12/20 01:18:13;;;;;;;6.45;2.53;;;;;;;4.03;100.00;101320.59;1014413;29;20315;-55
2023/12/20 01:18:45;;;;;;;3.67;1.70;;;;;;;3.99;100.00;101316.63;1014668;29;20304;-57
2023/12/20 01:19:59;;;;;;;5.80;1.50;;;;;;;3.96;100.00;101324.88;1015747;29;20307;-54
2023/12/20 01:20:53;;;;;;;12.05;2.65;;;;;;;3.99;100.00;101313.19;1013687;29;20297;-54
2023/12/20 01:21:36;;;;;;;10.15;1.70;;;;;;;3.99;100.00;101324.56;1012781;29;20336;-57
2023/12/20 01:22:13;;;;;;;17.80;1.77;;;;;;;3.99;100.00;101319.28;1006407;29;20303;-57
2023/12/20 01:22:45;;;;;;;8.93;2.22;;;;;;;3.98;100.00;101317.63;1010682;29;20309;-57
2023/12/20 01:23:17;;;;;;;4.63;2.20;;;;;;;3.94;100.00;101326.84;1011775;29;20304;-57
2023/12/20 01:23:50;;;;;;;8.70;2.45;;;;;;;3.97;100.00;101315.97;1015464;29;20651;-57
2023/12/20 01:24:22;;;;;;;8.63;1.67;;;;;;;3.97;100.00;101315.16;1014569;29;20311;-58
2023/12/20 01:24:53;;;;;;;9.30;1.77;;;;;;;3.94;100.00;101326.84;1015027;29;20959;-58
2023/12/20 01:25:25;;;;;;;10.60;1.33;;;;;;;3.98;100.00;101317.63;1014738;29;20311;-57
2023/12/20 01:25:59;;;;;;;7.53;2.30;;;;;;;3.96;100.00;101316.97;1015353;29;20314;-58
2023/12/20 01:26:31;;;;;;;11.73;2.08;;;;;;;3.93;100.00;101319.94;1015159;29;20730;-58
2023/12/20 01:27:02;;;;;;;8.32;3.83;;;;;;;3.88;100.00;101321.41;1014581;29;20739;-57
2023/12/20 01:27:34;;;;;;;5.18;1.65;;;;;;;3.90;100.00;101320.25;1015085;29;20304;-58
2023/12/20 01:28:06;;;;;;;10.50;1.75;;;;;;;3.85;100.00;101317.28;1014790;29;20312;-57
2023/12/20 01:28:38;;;;;;;10.77;2.08;;;;;;;3.82;100.00;101312.31;1014846;29;20311;-58
2023/12/20 01:29:10;;;;;;;8.43;2.05;;;;;;;3.79;100.00;101315.25;1014658;29;20315;-58
2023/12/20 01:29:41;;;;;;;16.40;3.70;;;;;;;3.86;100.00;101313.66;1014455;29;20295;-57
2023/12/20 01:30:13;;;;;;;13.77;2.60;;;;;;;3.84;100.00;101315.63;1014825;29;20380;-58
2023/12/20 01:30:45;;;;;;;6.85;1.65;;;;;;;3.80;100.00;101311.63;1014653;29;20358;-57
2023/12/20 01:31:17;;;;;;;10.63;1.88;;;;;;;3.77;100.00;101314.59;1015098;29;20300;-57
2023/12/20 01:31:48;;;;;;;12.65;2.70;;;;;;;3.79;100.00;101317.06;1015792;29;20375;-58
2023/12/20 01:32:20;;;;;;;16.58;1.80;;;;;;;3.77;100.00;101314.59;1017027;29;20312;-58
2023/12/20 01:32:52;;;;;;;15.45;2.17;;;;;;;3.81;100.00;101315.94;1019192;29;20864;-58
2023/12/20 01:33:23;;;;;;;9.18;2.47;;;;;;;3.85;100.00;101312.00;1016858;29;20374;-57
2023/12/20 01:33:55;;;;;;;11.90;2.22;;;;;;;3.79;100.00;101310.00;1017261;29;20331;-57
2023/12/20 01:34:27;;;;;;;8.60;2.00;;;;;;;3.81;100.00;101315.94;1013798;29;20301;-58
2023/12/20 01:34:59;;;;;;;11.88;2.22;;;;;;;3.80;100.00;101313.44;1015632;29;20439;-58
2023/12/20 01:35:33;;;;;;;10.25;1.65;;;;;;;3.87;100.00;101315.31;1015710;29;20310;-57
2023/12/20 01:36:05;;;;;;;9.15;3.28;;;;;;;3.81;100.00;101315.94;1015720;29;20311;-57
2023/12/20 01:36:37;;;;;;;11.40;2.05;;;;;;;3.83;100.00;101316.59;1015335;29;20359;-57
2023/12/20 01:37:08;;;;;;;9.98;2.53;;;;;;;3.81;100.00;101315.09;1015796;29;20303;-57
2023/12/20 01:37:40;;;;;;;18.67;2.63;;;;;;;3.79;100.00;101317.91;1015681;29;20319;-57
2023/12/20 01:38:12;;;;;;;6.53;1.58;;;;;;;3.75;100.00;101313.94;1015718;29;20857;-57
2023/12/20 01:38:43;;;;;;;10.85;2.53;;;;;;;3.84;100.00;101315.63;1015605;29;20296;-57
2023/12/20 01:39:15;;;;;;;10.32;2.08;;;;;;;3.81;100.00;101315.94;1015504;29;20318;-57
2023/12/20 01:39:58;;;;;;;15.60;2.67;;;;;;;3.77;100.00;101322.50;1015602;29;20335;-57
2023/12/20 01:40:30;;;;;;;5.68;2.65;;;;;;;3.80;100.00;101319.53;1015775;29;20315;-57
2023/12/20 01:41:02;;;;;;;12.18;2.53;;;;;;;3.75;100.00;101318.38;1015549;29;20315;-57
2023/12/20 01:41:33;;;;;;;7.07;2.83;;;;;;;3.76;100.00;101318.22;1015841;29;20737;-57
2023/12/20 01:42:05;;;;;;;9.50;2.20;;;;;;;3.72;100.00;101327.44;1015731;29;20303;-58
2023/12/20 01:42:37;;;;;;;14.95;1.77;;;;;;;3.67;100.00;101313.91;1015531;29;20304;-58
2023/12/20 01:43:09;;;;;;;11.07;2.35;;;;;;;3.68;100.00;101316.41;1015370;29;20317;-55
2023/12/20 01:43:41;;;;;;;7.03;1.80;;;;;;;3.70;100.00;101318.88;1015856;29;20672;-58
2023/12/20 01:44:56;;;;;;;;;;;;;;;3.70;100.00;101318.88;1016900;29;20779;-57
2023/12/20 01:45:36;;;;;;;13.57;1.58;;;;;;;3.74;100.00;101325.47;1014524;29;19923;-54
2023/12/20 01:46:19;;;;;;;11.27;1.77;;;;;;;3.76;100.00;101326.13;1016155;29;20355;-56
2023/12/20 01:47:19;;;;;;;18.42;2.00;;;;;;;3.79;100.00;101324.97;1009904;29;20332;-53
2023/12/20 01:48:25;;;;;;;8.85;1.60;;;;;;;3.77;100.00;101325.13;1013029;29;20307;-54
2023/12/20 01:49:26;;;;;;;20.67;1.90;;;;;;;3.70;100.00;101318.88;1018541;29;20353;-56
2023/12/20 01:50:16;;;;;;;14.63;1.63;;;;;;;3.69;100.00;101322.50;1017884;29;20790;-54
2023/12/20 01:51:11;;;;;;;14.98;1.48;;;;;;;3.68;100.00;101320.84;1015634;29;20806;-57
2023/12/20 01:52:14;;;;;;;12.10;2.22;;;;;;;3.68;100.00;101329.56;1011666;29;20799;-57
2023/12/20 01:53:32;;;;;;;7.35;1.52;;;;;;;3.67;100.00;101324.47;1008770;29;20336;-53
2023/12/20 01:54:23;;;;;;;11.25;1.98;;;;;;;3.62;100.00;101326.75;1010089;29;20312;-56
2023/12/20 01:55:47;;;;;;;9.48;2.20;;;;;;;3.60;100.00;101329.53;1010899;29;20310;-57
2023/12/20 01:56:34;;;;;;;6.18;2.53;;;;;;;3.63;100.00;101328.41;1018169;29;20741;-53
2023/12/20 01:57:20;;;;;;;17.40;4.30;;;;;;;3.64;100.00;101322.16;1013171;29;20372;-54
2023/12/20 01:58:14;;;;;;;9.45;2.00;;;;;;;3.71;100.00;101316.06;1010641;29;20822;-53
2023/12/20 01:59:18;;;;;;;11.65;1.65;;;;;;;3.70;100.00;101324.13;1003786;29;20853;-53
2023/12/20 02:00:23;;;;;;;10.60;2.10;;;;;;;3.71;100.00;101326.59;1005824;29;20136;-57
2023/12/20 02:01:21;;;;;;;15.90;2.38;;;;;;;3.69;100.00;101322.50;1016953;29;20860;-57
2023/12/20 02:02:20;;;;;;;6.30;1.70;;;;;;;3.69;100.00;101315.41;1015344;29;20349;-52
2023/12/20 02:03:20;;;;;;;14.07;1.98;;;;;;;3.73;100.00;101321.19;1008290;29;20328;-54
2023/12/20 02:04:11;;;;;;;12.93;2.20;;;;;;;3.69;100.00;101322.50;1013819;29;20320;-53
2023/12/20 02:05:07;;;;;;;9.00;2.40;;;;;;;3.63;100.00;101312.59;1018925;29;20308;-53
2023/12/20 02:05:53;;;;;;;17.27;2.75;;;;;;;3.67;100.00;101314.75;1014361;29;20317;-57
2023/12/20 02:06:40;;;;;;;10.05;1.80;;;;;;;3.67;100.00;101325.28;1020033;29;20505;-53
2023/12/20 02:07:28;;;;;;;11.68;1.70;;;;;;;3.63;100.00;101318.69;1015021;29;20308;-54
2023/12/20 02:08:16;;;;;;;9.02;2.25;;;;;;;3.73;100.00;101323.81;1013864;29;20456;-57
2023/12/20 02:09:06;;;;;;;13.35;1.67;;;;;;;3.71;100.00;101329.25;1017374;29;20853;-53
2023/12/20 02:09:53;;;;;;;9.20;2.08;;;;;;;3.68;100.00;101324.28;1017204;29;20308;-57
2023/12/20 02:10:46;;;;;;;14.57;2.25;;;;;;;3.66;100.00;101326.28;1014349;29;20084;-54
2023/12/20 02:11:49;;;;;;;15.15;1.90;;;;;;;3.59;100.00;101332.34;1009932;29;20309;-53
2023/12/20 02:13:01;;;;;;;14.18;1.60;;;;;;;3.56;100.00;101325.56;1012114;29;20442;-57
2023/12/20 02:14:22;;;;;;;11.75;3.03;;;;;;;3.59;100.00;101329.69;1016693;29;20759;-57
2023/12/20 02:15:13;;;;;;;10.65;2.85;;;;;;;3.61;100.00;101325.09;1012692;29;20319;-54
2023/12/20 02:16:08;;;;;;;4.63;1.42;;;;;;;3.62;100.00;101330.22;1014417;29;20807;-54
2023/12/20 02:16:48;;;;;;;8.07;3.03;;;;;;;3.58;100.00;101325.41;1014595;29;20360;-56
2023/12/20 02:17:54;;;;;;;6.60;2.67;;;;;;;3.63;100.00;101318.69;1017155;29;20311;-57
2023/12/20 02:18:52;;;;;;;12.25;2.13;;;;;;;3.71;100.00;101315.25;1017086;29;20395;-53
2023/12/20 02:20:00;;;;;;;9.00;1.85;;;;;;;3.73;100.00;101321.19;1011475;29;20316;-56
2023/12/20 02:21:25;;;;;;;10.10;1.98;;;;;;;3.66;100.00;101318.38;1018022;29;20760;-53
2023/12/20 02:22:18;;;;;;;12.50;2.03;;;;;;;3.67;100.00;101324.47;1014604;29;20308;-53
2023/12/20 02:23:28;;;;;;;8.52;3.25;;;;;;;3.74;100.00;101317.56;1016312;29;20309;-55
2023/12/20 02:24:19;;;;;;;22.45;1.95;;;;;;;3.79;100.00;101315.25;1008589;29;20297;-57
2023/12/20 02:25:40;;;;;;;16.77;2.85;;;;;;;3.83;100.00;101313.94;1009426;29;20316;-56
2023/12/20 02:26:49;;;;;;;18.92;1.98;;;;;;;3.91;100.00;101315.81;1015257;29;20300;-53
2023/12/20 02:27:57;;;;;;;11.25;2.17;;;;;;;3.87;100.00;101323.22;1011403;29;20045;-57
2023/12/20 02:28:48;;;;;;;11.75;2.15;;;;;;;3.82;100.00;101317.56;1009091;29;20313;-54
2023/12/20 02:30:30;;;;;;;19.10;1.92;;;;;;;3.82;100.00;101317.56;1003604;29;20356;-53
2023/12/20 02:32:09;;;;;;;13.55;2.33;;;;;;;3.98;100.00;101312.34;1018803;29;20299;-56
2023/12/20 02:33:05;;;;;;;8.25;1.48;;;;;;;3.99;100.00;101306.09;1017636;29;20371;-57
2023/12/20 02:33:46;;;;;;;16.75;1.60;;;;;;;4.02;100.00;101303.13;1017627;29;20052;-57
2023/12/20 02:34:42;;;;;;;12.50;1.92;;;;;;;4.00;100.00;101297.22;1016980;29;20376;-55
2023/12/20 02:35:35;;;;;;;16.45;2.50;;;;;;;4.08;100.00;101306.09;1012542;29;20312;-54
2023/12/20 02:36:35;;;;;;;14.13;2.15;;;;;;;4.14;100.00;101295.75;1016532;29;20323;-57
2023/12/20 02:37:42;;;;;;;11.63;1.88;;;;;;;4.09;100.00;101297.22;1008176;29;20308;-53
2023/12/20 02:38:31;;;;;;;20.55;3.20;;;;;;;4.11;100.00;101301.38;1012434;29;20795;-54
2023/12/20 02:39:51;;;;;;;27.42;2.75;;;;;;;4.03;100.00;101304.78;1023385;29;20303;-61
2023/12/20 02:40:51;;;;;;;17.38;2.22;;;;;;;4.06;100.00;101298.38;1016935;29;20403;-54
2023/12/20 02:41:53;;;;;;;12.73;2.25;;;;;;;4.07;100.00;101299.19;1013385;29;20385;-53
2023/12/20 02:42:59;;;;;;;9.05;2.50;;;;;;;4.04;100.00;101295.88;1009461;29;20312;-54
2023/12/20 02:43:41;;;;;;;6.05;2.05;;;;;;;4.08;100.00;101296.38;1010743;29;20317;-57
2023/12/20 02:44:31;;;;;;;15.95;2.28;;;;;;;4.05;100.00;101296.72;1014463;29;20766;-57
2023/12/20 02:45:33;;;;;;;14.95;3.72;;;;;;;4.02;100.00;101302.31;1016590;29;20308;-56
2023/12/20 02:46:21;;;;;;;15.30;3.83;;;;;;;4.09;100.00;101307.75;1013284;29;20308;-57
2023/12/20 02:47:54;;;;;;;18.95;1.92;;;;;;;4.07;100.00;101304.47;1002960;29;20054;-57
2023/12/20 02:48:54;;;;;;;12.63;2.10;;;;;;;4.13;100.00;101306.47;1018110;29;20394;-53
2023/12/20 02:49:54;;;;;;;15.52;1.75;;;;;;;4.16;100.00;101303.50;1019228;29;20394;-54
2023/12/20 02:50:48;;;;;;;9.82;1.90;;;;;;;4.21;100.00;101303.84;1015890;29;20321;-57
2023/12/20 02:51:38;;;;;;;10.05;1.50;;;;;;;4.22;100.00;101297.56;1019476;29;20307;-54
2023/12/20 02:52:40;;;;;;;5.75;1.67;;;;;;;4.25;100.00;101307.78;1023470;29;20314;-53
2023/12/20 02:53:53;;;;;;;22.92;5.80;;;;;;;4.29;100.00;101304.66;1017269;29;20320;-56
2023/12/20 02:54:40;;;;;;;13.80;3.70;;;;;;;4.21;100.00;101298.56;1012102;29;20077;-53
2023/12/20 02:56:59;;;;;;;12.18;1.63;;;;;;;4.28;100.00;101302.19;1009158;29;20317;-56
2023/12/20 02:57:45;;;;;;;13.50;1.90;;;;;;;4.26;100.00;101293.63;1021563;29;20314;-56
2023/12/20 02:59:10;;;;;;;;;;;;;;;;;;;;;
2023/12/20 03:00:07;;;;;;;14.95;2.17;;;;;;;4.18;100.00;101286.53;1014649;29;20312;-53
2023/12/20 03:01:14;;;;;;;8.98;2.38;;;;;;;4.23;100.00;101292.13;1012781;29;20052;-53
2023/12/20 03:02:12;;;;;;;12.27;3.50;;;;;;;4.23;100.00;101280.75;1013153;29;20293;-56
2023/12/20 03:03:04;;;;;;;6.45;2.38;;;;;;;4.29;100.00;101280.09;1022598;29;20331;-55
2023/12/20 03:04:11;;;;;;;18.10;2.15;;;;;;;4.29;100.00;101288.00;1018167;29;20318;-54
2023/12/20 03:05:22;;;;;;;19.50;2.28;;;;;;;4.31;100.00;101278.13;1009392;29;20412;-57
2023/12/20 03:06:34;;;;;;;11.60;2.85;;;;;;;4.27;100.00;101275.00;1008032;29;20809;-57
2023/12/20 03:07:12;;;;;;;15.45;2.22;;;;;;;4.30;100.00;101273.84;1006419;29;20320;-57
2023/12/20 03:07:44;;;;;;;15.15;2.70;;;;;;;4.29;100.00;101277.47;1007191;29;20309;-57
2023/12/20 03:08:16;;;;;;;23.63;2.25;;;;;;;4.30;100.00;101269.38;1010827;29;20309;-57
2023/12/20 03:08:47;;;;;;;11.40;2.03;;;;;;;4.33;100.00;101268.22;1012541;29;20831;-57
2023/12/20 03:09:19;;;;;;;13.57;2.53;;;;;;;4.31;100.00;101270.22;1018699;29;21270;-57
2023/12/20 03:09:51;;;;;;;9.95;2.90;;;;;;;4.31;100.00;101275.47;1018604;29;20299;-58
2023/12/20 03:10:42;;;;;;;7.55;2.42;;;;;;;4.32;100.00;101258.66;1013371;29;20296;-57
2023/12/20 03:11:14;;;;;;;21.70;2.53;;;;;;;4.34;100.00;101270.69;1012004;29;20313;-57
2023/12/20 03:11:46;;;;;;;21.02;2.97;;;;;;;4.35;100.00;101269.72;1012689;29;20305;-54
2023/12/20 03:12:17;;;;;;;11.48;2.10;;;;;;;4.35;100.00;101268.88;1014615;29;20348;-53
2023/12/20 03:12:49;;;;;;;9.52;2.13;;;;;;;4.32;100.00;101270.03;1014716;29;20312;-53
2023/12/20 03:13:21;;;;;;;18.00;2.47;;;;;;;4.28;100.00;101273.19;1014650;29;20701;-53
2023/12/20 03:13:53;;;;;;;18.95;2.50;;;;;;;4.32;100.00;101277.13;1014611;29;20372;-54
2023/12/20 03:14:24;;;;;;;16.75;2.80;;;;;;;4.33;100.00;101273.50;1014811;29;20299;-57
2023/12/20 03:14:56;;;;;;;17.17;2.90;;;;;;;4.33;100.00;101262.97;1014958;29;20307;-57
2023/12/20 03:15:28;;;;;;;10.43;2.72;;;;;;;4.29;100.00;101266.91;1015006;29;20308;-57
2023/12/20 03:15:59;;;;;;;14.27;2.75;;;;;;;4.29;100.00;101272.19;1014793;29;20352;-57
2023/12/20 03:16:32;;;;;;;11.25;2.97;;;;;;;4.30;100.00;101260.66;1014589;29;20866;-57
2023/12/20 03:17:07;;;;;;;14.48;2.42;;;;;;;4.31;100.00;101263.13;1014628;29;20492;-57
2023/12/20 03:17:38;;;;;;;4.90;1.83;;;;;;;4.31;100.00;101267.56;1014728;29;20308;-57
2023/12/20 03:18:10;;;;;;;16.83;2.80;;;;;;;4.30;100.00;101265.94;1014798;29;20339;-57
2023/12/20 03:18:41;;;;;;;16.20;2.47;;;;;;;4.33;100.00;101262.97;1014838;29;20903;-57
2023/12/20 03:19:13;;;;;;;11.50;2.72;;;;;;;4.33;100.00;101258.50;1014503;29;20303;-57
2023/12/20 03:19:45;;;;;;;21.25;2.72;;;;;;;4.34;100.00;101268.06;1015338;29;20312;-57
2023/12/20 03:20:16;;;;;;;13.30;1.98;;;;;;;4.36;100.00;101267.91;1013143;29;20810;-57
2023/12/20 03:20:49;;;;;;;13.05;2.67;;;;;;;4.34;100.00;101269.88;1012253;29;20688;-57
2023/12/20 03:21:21;;;;;;;25.35;2.55;;;;;;;4.34;100.00;101257.50;1011184;29;20672;-58
2023/12/20 03:21:53;;;;;;;10.90;3.20;;;;;;;4.33;100.00;101268.22;1011867;29;20402;-57
2023/12/20 03:22:25;;;;;;;23.02;2.55;;;;;;;4.30;100.00;101263.28;1014476;29;20602;-53
2023/12/20 03:22:56;;;;;;;16.42;2.33;;;;;;;4.31;100.00;101263.13;1014605;29;20304;-51
2023/12/20 03:23:30;;;;;;;20.25;3.40;;;;;;;4.30;100.00;101271.19;1014715;29;20312;-54
2023/12/20 03:24:02;;;;;;;14.50;3.20;;;;;;;4.34;100.00;101268.06;1015006;29;20823;-54
2023/12/20 03:24:33;;;;;;;12.30;2.35;;;;;;;4.34;100.00;101261.97;1008359;29;20823;-57
2023/12/20 03:25:05;;;;;;;11.32;2.53;;;;;;;4.31;100.00;101264.94;1010734;29;20324;-57
2023/12/20 03:25:37;;;;;;;22.35;3.80;;;;;;;4.23;100.00;101257.84;1010793;29;20329;-57
2023/12/20 03:26:09;;;;;;;11.55;3.90;;;;;;;4.27;100.00;101258.34;1010878;29;20856;-57
2023/12/20 03:26:40;;;;;;;13.50;3.03;;;;;;;4.32;100.00;101261.31;1014186;29;20318;-57
2023/12/20 03:27:12;;;;;;;15.95;3.05;;;;;;;4.37;100.00;101259.00;1014617;29;20312;-53
2023/12/20 03:27:43;;;;;;;23.48;2.47;;;;;;;4.35;100.00;101268.88;1014870;29;20307;-54
2023/12/20 03:28:16;;;;;;;19.67;3.15;;;;;;;4.38;100.00;101265.91;1014973;29;20723;-54
2023/12/20 03:28:48;;;;;;;20.95;2.80;;;;;;;4.38;100.00;101260.66;1014609;29;20360;-53
2023/12/20 03:29:20;;;;;;;15.35;2.72;;;;;;;4.34;100.00;101264.59;1014449;29;20874;-53
2023/12/20 03:29:51;;;;;;;21.63;4.15;;;;;;;4.29;100.00;101262.47;1014465;29;20308;-57
2023/12/20 03:30:23;;;;;;;17.75;2.83;;;;;;;4.30;100.00;101258.00;1014684;29;20803;-57
2023/12/20 03:30:54;;;;;;;14.23;3.47;;;;;;;4.34;100.00;101259.31;1014571;29;20327;-57
2023/12/20 03:31:26;;;;;;;7.82;2.75;;;;;;;4.26;100.00;101259.34;1014621;29;20339;-57
2023/12/20 03:31:58;;;;;;;18.95;2.58;;;;;;;4.35;100.00;101255.69;1014997;29;20296;-58
2023/12/20 03:32:29;;;;;;;15.63;3.30;;;;;;;4.29;100.00;101256.38;1013007;29;20311;-57
2023/12/20 03:33:01;;;;;;;20.70;3.47;;;;;;;4.28;100.00;101260.00;1014676;29;20858;-57
2023/12/20 03:33:33;;;;;;;15.18;3.28;;;;;;;4.23;100.00;101257.03;1014702;29;20323;-57
2023/12/20 03:34:04;;;;;;;16.05;2.45;;;;;;;4.21;100.00;101259.00;1014797;29;20299;-57
2023/12/20 03:34:36;;;;;;;9.48;2.88;;;;;;;4.21;100.00;101264.28;1013615;29;20300;-56
2023/12/20 03:35:08;;;;;;;16.52;3.03;;;;;;;4.22;100.00;101250.13;1014711;29;20825;-57
2023/12/20 03:35:40;;;;;;;12.45;2.70;;;;;;;4.24;100.00;101263.94;1015002;29;20313;-57